sensor_id;sensor_type;location;lat;lon;timestamp;temperature;humidity
13817;DHT22;6979;52.116;5.286;2022-09-09T00:02:01;18.90;99.90
13817;DHT22;6979;52.116;5.286;2022-09-09T00:04:31;18.90;99.90
13817;DHT22;6979;52.116;5.286;2022-09-09T00:07:05;18.90;99.90
13817;DHT22;6979;52.116;5.286;2022-09-09T00:09:43;18.90;99.90
13817;DHT22;6979;52.116;5.286;2022-09-09T00:12:14;18.90;99.90
13817;DHT22;6979;52.116;5.286;2022-09-09T00:14:48;18.90;99.90
13817;DHT22;6979;52.116;5.286;2022-09-09T00:17:24;18.90;99.90
13817;DHT22;6979;52.116;5.286;2022-09-09T00:19:58;18.90;99.90
13817;DHT22;6979;52.116;5.286;2022-09-09T00:22:29;18.90;99.90
13817;DHT22;6979;52.116;5.286;2022-09-09T00:25:02;18.90;99.90
13817;DHT22;6979;52.116;5.286;2022-09-09T00:27:40;18.90;99.90
13817;DHT22;6979;52.116;5.286;2022-09-09T00:30:15;18.80;99.90
13817;DHT22;6979;52.116;5.286;2022-09-09T00:32:46;18.80;99.90
13817;DHT22;6979;52.116;5.286;2022-09-09T00:35:18;18.80;99.90
13817;DHT22;6979;52.116;5.286;2022-09-09T00:37:48;18.80;99.90
13817;DHT22;6979;52.116;5.286;2022-09-09T00:40:24;18.80;99.90
13817;DHT22;6979;52.116;5.286;2022-09-09T00:43:00;18.70;99.90
13817;DHT22;6979;52.116;5.286;2022-09-09T00:45:46;18.70;99.90
13817;DHT22;6979;52.116;5.286;2022-09-09T00:48:19;18.70;99.90
13817;DHT22;6979;52.116;5.286;2022-09-09T00:50:55;18.70;99.90
13817;DHT22;6979;52.116;5.286;2022-09-09T00:53:31;18.70;99.90
13817;DHT22;6979;52.116;5.286;2022-09-09T00:56:08;18.60;99.90
13817;DHT22;6979;52.116;5.286;2022-09-09T00:58:36;18.60;99.90
13817;DHT22;6979;52.116;5.286;2022-09-09T01:01:05;18.60;99.90
13817;DHT22;6979;52.116;5.286;2022-09-09T01:03:38;18.50;99.90
13817;DHT22;6979;52.116;5.286;2022-09-09T01:06:16;18.50;99.90
13817;DHT22;6979;52.116;5.286;2022-09-09T01:08:52;18.50;99.90
13817;DHT22;6979;52.116;5.286;2022-09-09T01:11:25;18.50;99.90
13817;DHT22;6979;52.116;5.286;2022-09-09T01:14:00;18.50;99.90
13817;DHT22;6979;52.116;5.286;2022-09-09T01:16:32;18.40;99.90
13817;DHT22;6979;52.116;5.286;2022-09-09T01:19:00;18.40;99.90
13817;DHT22;6979;52.116;5.286;2022-09-09T01:21:38;18.40;99.90
13817;DHT22;6979;52.116;5.286;2022-09-09T01:24:19;18.40;99.90
13817;DHT22;6979;52.116;5.286;2022-09-09T01:27:04;18.40;99.90
13817;DHT22;6979;52.116;5.286;2022-09-09T01:29:32;18.40;99.90
13817;DHT22;6979;52.116;5.286;2022-09-09T01:32:01;18.40;99.90
13817;DHT22;6979;52.116;5.286;2022-09-09T01:34:33;18.40;99.90
13817;DHT22;6979;52.116;5.286;2022-09-09T01:37:03;18.30;99.90
13817;DHT22;6979;52.116;5.286;2022-09-09T01:39:32;18.30;99.90
13817;DHT22;6979;52.116;5.286;2022-09-09T01:42:05;18.30;99.90
13817;DHT22;6979;52.116;5.286;2022-09-09T01:44:34;18.20;99.90
13817;DHT22;6979;52.116;5.286;2022-09-09T01:47:03;18.20;99.90
13817;DHT22;6979;52.116;5.286;2022-09-09T01:49:30;18.20;99.90
13817;DHT22;6979;52.116;5.286;2022-09-09T01:52:02;18.20;99.90
13817;DHT22;6979;52.116;5.286;2022-09-09T01:54:34;18.20;99.90
13817;DHT22;6979;52.116;5.286;2022-09-09T01:57:15;18.10;99.90
13817;DHT22;6979;52.116;5.286;2022-09-09T01:59:51;18.10;99.90
13817;DHT22;6979;52.116;5.286;2022-09-09T02:02:27;18.10;99.90
13817;DHT22;6979;52.116;5.286;2022-09-09T02:05:15;18.20;99.90
13817;DHT22;6979;52.116;5.286;2022-09-09T02:07:48;18.10;99.90
13817;DHT22;6979;52.116;5.286;2022-09-09T02:10:32;18.10;99.90
13817;DHT22;6979;52.116;5.286;2022-09-09T02:13:14;18.10;99.90
13817;DHT22;6979;52.116;5.286;2022-09-09T02:15:45;18.10;99.90
13817;DHT22;6979;52.116;5.286;2022-09-09T02:18:16;18.00;99.90
13817;DHT22;6979;52.116;5.286;2022-09-09T02:20:50;18.10;99.90
13817;DHT22;6979;52.116;5.286;2022-09-09T02:23:17;18.10;99.90
13817;DHT22;6979;52.116;5.286;2022-09-09T02:25:48;18.00;99.90
13817;DHT22;6979;52.116;5.286;2022-09-09T02:28:24;18.00;99.90
13817;DHT22;6979;52.116;5.286;2022-09-09T02:30:53;18.00;99.90
13817;DHT22;6979;52.116;5.286;2022-09-09T02:33:28;18.00;99.90
13817;DHT22;6979;52.116;5.286;2022-09-09T02:35:58;18.00;99.90
13817;DHT22;6979;52.116;5.286;2022-09-09T02:38:33;18.00;99.90
13817;DHT22;6979;52.116;5.286;2022-09-09T02:41:07;18.00;99.90
13817;DHT22;6979;52.116;5.286;2022-09-09T02:43:36;17.90;99.90
13817;DHT22;6979;52.116;5.286;2022-09-09T02:46:20;17.90;99.90
13817;DHT22;6979;52.116;5.286;2022-09-09T02:48:54;17.90;99.90
13817;DHT22;6979;52.116;5.286;2022-09-09T02:51:35;17.80;99.90
13817;DHT22;6979;52.116;5.286;2022-09-09T02:54:09;17.80;99.90
13817;DHT22;6979;52.116;5.286;2022-09-09T02:56:41;17.80;99.90
13817;DHT22;6979;52.116;5.286;2022-09-09T02:59:11;17.80;99.90
13817;DHT22;6979;52.116;5.286;2022-09-09T03:01:39;17.80;99.90
13817;DHT22;6979;52.116;5.286;2022-09-09T03:04:06;17.80;99.90
13817;DHT22;6979;52.116;5.286;2022-09-09T03:06:33;17.80;99.90
13817;DHT22;6979;52.116;5.286;2022-09-09T03:09:10;17.80;99.90
13817;DHT22;6979;52.116;5.286;2022-09-09T03:11:37;17.80;99.90
13817;DHT22;6979;52.116;5.286;2022-09-09T03:14:05;17.80;99.90
13817;DHT22;6979;52.116;5.286;2022-09-09T03:16:33;17.80;99.90
13817;DHT22;6979;52.116;5.286;2022-09-09T03:19:00;17.80;99.90
13817;DHT22;6979;52.116;5.286;2022-09-09T03:21:28;17.80;99.90
13817;DHT22;6979;52.116;5.286;2022-09-09T03:23:55;17.80;99.90
13817;DHT22;6979;52.116;5.286;2022-09-09T03:26:22;17.80;99.90
13817;DHT22;6979;52.116;5.286;2022-09-09T03:28:50;17.80;99.90
13817;DHT22;6979;52.116;5.286;2022-09-09T03:31:20;17.70;99.90
13817;DHT22;6979;52.116;5.286;2022-09-09T03:33:48;17.70;99.90
13817;DHT22;6979;52.116;5.286;2022-09-09T03:36:16;17.70;99.90
13817;DHT22;6979;52.116;5.286;2022-09-09T03:38:43;17.70;99.90
13817;DHT22;6979;52.116;5.286;2022-09-09T03:41:11;17.70;99.90
13817;DHT22;6979;52.116;5.286;2022-09-09T03:43:38;17.70;99.90
13817;DHT22;6979;52.116;5.286;2022-09-09T03:46:05;17.70;99.90
13817;DHT22;6979;52.116;5.286;2022-09-09T03:48:32;17.70;99.90
13817;DHT22;6979;52.116;5.286;2022-09-09T03:51:01;17.70;99.90
13817;DHT22;6979;52.116;5.286;2022-09-09T03:53:31;17.70;99.90
13817;DHT22;6979;52.116;5.286;2022-09-09T03:55:59;17.70;99.90
13817;DHT22;6979;52.116;5.286;2022-09-09T03:58:27;17.70;99.90
13817;DHT22;6979;52.116;5.286;2022-09-09T04:01:02;17.70;99.90
13817;DHT22;6979;52.116;5.286;2022-09-09T04:03:30;17.70;99.90
13817;DHT22;6979;52.116;5.286;2022-09-09T04:05:59;17.60;99.90
13817;DHT22;6979;52.116;5.286;2022-09-09T04:08:30;17.60;99.90
13817;DHT22;6979;52.116;5.286;2022-09-09T04:10:59;17.60;99.90
13817;DHT22;6979;52.116;5.286;2022-09-09T04:13:31;17.60;99.90
13817;DHT22;6979;52.116;5.286;2022-09-09T04:15:59;17.60;99.90
13817;DHT22;6979;52.116;5.286;2022-09-09T04:18:27;17.60;99.90
13817;DHT22;6979;52.116;5.286;2022-09-09T04:20:55;17.60;99.90
13817;DHT22;6979;52.116;5.286;2022-09-09T04:23:25;17.60;99.90
13817;DHT22;6979;52.116;5.286;2022-09-09T04:25:58;17.60;99.90
13817;DHT22;6979;52.116;5.286;2022-09-09T04:28:27;17.60;99.90
13817;DHT22;6979;52.116;5.286;2022-09-09T04:30:54;17.60;99.90
13817;DHT22;6979;52.116;5.286;2022-09-09T04:33:23;17.60;99.90
13817;DHT22;6979;52.116;5.286;2022-09-09T04:35:52;17.60;99.90
13817;DHT22;6979;52.116;5.286;2022-09-09T04:38:20;17.60;99.90
13817;DHT22;6979;52.116;5.286;2022-09-09T04:40:50;17.60;99.90
13817;DHT22;6979;52.116;5.286;2022-09-09T04:43:19;17.60;99.90
13817;DHT22;6979;52.116;5.286;2022-09-09T04:45:47;17.60;99.90
13817;DHT22;6979;52.116;5.286;2022-09-09T04:48:15;17.60;99.90
13817;DHT22;6979;52.116;5.286;2022-09-09T04:50:42;17.60;99.90
13817;DHT22;6979;52.116;5.286;2022-09-09T04:53:11;17.60;99.90
13817;DHT22;6979;52.116;5.286;2022-09-09T04:55:38;17.60;99.90
13817;DHT22;6979;52.116;5.286;2022-09-09T04:58:06;17.70;99.90
13817;DHT22;6979;52.116;5.286;2022-09-09T05:00:35;17.70;99.90
13817;DHT22;6979;52.116;5.286;2022-09-09T05:03:05;17.70;99.90
13817;DHT22;6979;52.116;5.286;2022-09-09T05:05:35;17.70;99.90
13817;DHT22;6979;52.116;5.286;2022-09-09T05:08:03;17.70;99.90
13817;DHT22;6979;52.116;5.286;2022-09-09T05:10:30;17.70;99.90
13817;DHT22;6979;52.116;5.286;2022-09-09T05:12:58;17.70;99.90
13817;DHT22;6979;52.116;5.286;2022-09-09T05:15:27;17.70;99.90
13817;DHT22;6979;52.116;5.286;2022-09-09T05:17:58;17.70;99.90
13817;DHT22;6979;52.116;5.286;2022-09-09T05:20:28;17.70;99.90
13817;DHT22;6979;52.116;5.286;2022-09-09T05:22:55;17.70;99.90
13817;DHT22;6979;52.116;5.286;2022-09-09T05:25:26;17.70;99.90
13817;DHT22;6979;52.116;5.286;2022-09-09T05:27:54;17.70;99.90
13817;DHT22;6979;52.116;5.286;2022-09-09T05:30:21;17.70;99.90
13817;DHT22;6979;52.116;5.286;2022-09-09T05:32:51;17.70;99.90
13817;DHT22;6979;52.116;5.286;2022-09-09T05:35:19;17.70;99.90
13817;DHT22;6979;52.116;5.286;2022-09-09T05:37:46;17.70;99.90
13817;DHT22;6979;52.116;5.286;2022-09-09T05:40:14;17.70;99.90
13817;DHT22;6979;52.116;5.286;2022-09-09T05:42:40;17.70;99.90
13817;DHT22;6979;52.116;5.286;2022-09-09T05:45:08;17.80;99.90
13817;DHT22;6979;52.116;5.286;2022-09-09T05:47:36;17.80;99.90
13817;DHT22;6979;52.116;5.286;2022-09-09T05:50:06;17.80;99.90
13817;DHT22;6979;52.116;5.286;2022-09-09T05:52:34;17.70;99.90
13817;DHT22;6979;52.116;5.286;2022-09-09T05:55:04;17.70;99.90
13817;DHT22;6979;52.116;5.286;2022-09-09T05:57:31;17.70;99.90
13817;DHT22;6979;52.116;5.286;2022-09-09T05:59:58;17.80;99.90
13817;DHT22;6979;52.116;5.286;2022-09-09T06:02:25;17.80;99.90
13817;DHT22;6979;52.116;5.286;2022-09-09T06:04:52;17.80;99.90
13817;DHT22;6979;52.116;5.286;2022-09-09T06:07:22;17.80;99.90
13817;DHT22;6979;52.116;5.286;2022-09-09T06:09:50;17.90;99.90
13817;DHT22;6979;52.116;5.286;2022-09-09T06:12:18;17.90;99.90
13817;DHT22;6979;52.116;5.286;2022-09-09T06:14:46;17.90;99.90
13817;DHT22;6979;52.116;5.286;2022-09-09T06:17:14;17.90;99.90
13817;DHT22;6979;52.116;5.286;2022-09-09T06:19:41;17.90;99.90
13817;DHT22;6979;52.116;5.286;2022-09-09T06:22:07;18.00;99.90
13817;DHT22;6979;52.116;5.286;2022-09-09T06:24:39;18.00;99.90
13817;DHT22;6979;52.116;5.286;2022-09-09T06:27:07;18.00;99.90
13817;DHT22;6979;52.116;5.286;2022-09-09T06:29:35;18.10;99.90
13817;DHT22;6979;52.116;5.286;2022-09-09T06:32:03;18.10;99.90
13817;DHT22;6979;52.116;5.286;2022-09-09T06:34:30;18.20;99.90
13817;DHT22;6979;52.116;5.286;2022-09-09T06:36:58;18.20;99.90
13817;DHT22;6979;52.116;5.286;2022-09-09T06:39:29;18.30;99.90
13817;DHT22;6979;52.116;5.286;2022-09-09T06:41:56;18.30;99.90
13817;DHT22;6979;52.116;5.286;2022-09-09T06:44:44;18.40;99.90
13817;DHT22;6979;52.116;5.286;2022-09-09T06:47:17;18.50;99.90
13817;DHT22;6979;52.116;5.286;2022-09-09T06:49:44;18.50;99.90
13817;DHT22;6979;52.116;5.286;2022-09-09T06:52:10;18.60;99.90
13817;DHT22;6979;52.116;5.286;2022-09-09T06:54:38;18.70;99.90
13817;DHT22;6979;52.116;5.286;2022-09-09T06:57:05;18.70;99.90
13817;DHT22;6979;52.116;5.286;2022-09-09T06:59:34;18.80;99.90
13817;DHT22;6979;52.116;5.286;2022-09-09T07:02:03;18.90;99.90
13817;DHT22;6979;52.116;5.286;2022-09-09T07:04:31;18.90;99.90
13817;DHT22;6979;52.116;5.286;2022-09-09T07:06:58;19.00;99.90
13817;DHT22;6979;52.116;5.286;2022-09-09T07:09:25;19.00;99.90
13817;DHT22;6979;52.116;5.286;2022-09-09T07:11:53;19.10;99.90
13817;DHT22;6979;52.116;5.286;2022-09-09T07:14:22;19.10;99.90
13817;DHT22;6979;52.116;5.286;2022-09-09T07:16:56;19.20;99.90
13817;DHT22;6979;52.116;5.286;2022-09-09T07:19:24;19.30;99.90
13817;DHT22;6979;52.116;5.286;2022-09-09T07:21:53;19.30;99.90
13817;DHT22;6979;52.116;5.286;2022-09-09T07:24:22;19.40;99.90
13817;DHT22;6979;52.116;5.286;2022-09-09T07:26:49;19.40;99.90
13817;DHT22;6979;52.116;5.286;2022-09-09T07:29:17;19.50;99.90
13817;DHT22;6979;52.116;5.286;2022-09-09T07:31:44;19.60;99.90
13817;DHT22;6979;52.116;5.286;2022-09-09T07:34:16;19.60;99.90
13817;DHT22;6979;52.116;5.286;2022-09-09T07:36:45;19.70;99.90
13817;DHT22;6979;52.116;5.286;2022-09-09T07:39:13;19.80;99.90
13817;DHT22;6979;52.116;5.286;2022-09-09T07:41:46;19.80;99.90
13817;DHT22;6979;52.116;5.286;2022-09-09T07:44:18;19.90;99.90
13817;DHT22;6979;52.116;5.286;2022-09-09T07:46:48;20.00;99.90
13817;DHT22;6979;52.116;5.286;2022-09-09T07:49:20;20.00;99.90
13817;DHT22;6979;52.116;5.286;2022-09-09T07:51:48;20.10;99.90
13817;DHT22;6979;52.116;5.286;2022-09-09T07:54:20;20.10;99.90
13817;DHT22;6979;52.116;5.286;2022-09-09T07:56:50;20.10;99.90
13817;DHT22;6979;52.116;5.286;2022-09-09T07:59:18;20.10;99.90
13817;DHT22;6979;52.116;5.286;2022-09-09T08:01:49;20.20;99.90
13817;DHT22;6979;52.116;5.286;2022-09-09T08:04:20;20.20;99.90
13817;DHT22;6979;52.116;5.286;2022-09-09T08:06:52;20.20;99.90
13817;DHT22;6979;52.116;5.286;2022-09-09T08:09:21;20.20;99.90
13817;DHT22;6979;52.116;5.286;2022-09-09T08:11:54;20.20;99.90
13817;DHT22;6979;52.116;5.286;2022-09-09T08:14:23;20.20;99.90
13817;DHT22;6979;52.116;5.286;2022-09-09T08:16:50;20.20;99.90
13817;DHT22;6979;52.116;5.286;2022-09-09T08:19:20;20.20;99.90
13817;DHT22;6979;52.116;5.286;2022-09-09T08:21:47;20.20;99.90
13817;DHT22;6979;52.116;5.286;2022-09-09T08:24:16;20.20;99.90
13817;DHT22;6979;52.116;5.286;2022-09-09T08:26:48;20.20;99.90
13817;DHT22;6979;52.116;5.286;2022-09-09T08:29:17;20.20;99.90
13817;DHT22;6979;52.116;5.286;2022-09-09T08:31:47;20.20;99.90
13817;DHT22;6979;52.116;5.286;2022-09-09T08:34:15;20.30;99.90
13817;DHT22;6979;52.116;5.286;2022-09-09T08:36:44;20.20;99.90
13817;DHT22;6979;52.116;5.286;2022-09-09T08:39:14;20.30;99.90
13817;DHT22;6979;52.116;5.286;2022-09-09T08:42:00;20.30;99.90
13817;DHT22;6979;52.116;5.286;2022-09-09T08:44:46;20.30;99.90
13817;DHT22;6979;52.116;5.286;2022-09-09T08:47:22;20.30;99.90
13817;DHT22;6979;52.116;5.286;2022-09-09T08:50:05;20.30;99.90
13817;DHT22;6979;52.116;5.286;2022-09-09T08:52:38;20.40;99.90
13817;DHT22;6979;52.116;5.286;2022-09-09T08:55:18;20.50;99.90
13817;DHT22;6979;52.116;5.286;2022-09-09T08:57:51;20.50;99.90
13817;DHT22;6979;52.116;5.286;2022-09-09T09:00:19;20.50;99.90
13817;DHT22;6979;52.116;5.286;2022-09-09T09:02:51;20.50;99.90
13817;DHT22;6979;52.116;5.286;2022-09-09T09:05:27;20.50;99.90
13817;DHT22;6979;52.116;5.286;2022-09-09T09:08:06;20.50;99.90
13817;DHT22;6979;52.116;5.286;2022-09-09T09:10:43;20.50;99.90
13817;DHT22;6979;52.116;5.286;2022-09-09T09:13:20;20.50;99.90
13817;DHT22;6979;52.116;5.286;2022-09-09T09:15:55;20.50;99.90
13817;DHT22;6979;52.116;5.286;2022-09-09T09:18:24;20.50;99.90
13817;DHT22;6979;52.116;5.286;2022-09-09T09:20:58;20.50;99.90
13817;DHT22;6979;52.116;5.286;2022-09-09T09:23:32;20.60;99.90
13817;DHT22;6979;52.116;5.286;2022-09-09T09:26:01;20.60;99.90
13817;DHT22;6979;52.116;5.286;2022-09-09T09:28:32;20.60;99.90
13817;DHT22;6979;52.116;5.286;2022-09-09T09:31:07;20.60;99.90
13817;DHT22;6979;52.116;5.286;2022-09-09T09:33:44;20.60;99.90
13817;DHT22;6979;52.116;5.286;2022-09-09T09:36:13;20.60;99.90
13817;DHT22;6979;52.116;5.286;2022-09-09T09:38:52;20.60;99.90
13817;DHT22;6979;52.116;5.286;2022-09-09T09:41:29;20.60;99.90
13817;DHT22;6979;52.116;5.286;2022-09-09T09:43:58;20.60;99.90
13817;DHT22;6979;52.116;5.286;2022-09-09T09:46:28;20.60;99.90
13817;DHT22;6979;52.116;5.286;2022-09-09T09:49:09;20.60;99.90
13817;DHT22;6979;52.116;5.286;2022-09-09T09:51:37;20.60;99.90
13817;DHT22;6979;52.116;5.286;2022-09-09T09:54:13;20.60;99.90
13817;DHT22;6979;52.116;5.286;2022-09-09T09:56:45;20.50;99.90
13817;DHT22;6979;52.116;5.286;2022-09-09T09:59:33;20.50;99.90
13817;DHT22;6979;52.116;5.286;2022-09-09T10:02:15;20.50;99.90
13817;DHT22;6979;52.116;5.286;2022-09-09T10:04:43;20.40;99.90
13817;DHT22;6979;52.116;5.286;2022-09-09T10:07:13;20.40;99.90
13817;DHT22;6979;52.116;5.286;2022-09-09T10:09:42;20.40;99.90
13817;DHT22;6979;52.116;5.286;2022-09-09T10:12:19;20.40;99.90
13817;DHT22;6979;52.116;5.286;2022-09-09T10:14:57;20.30;99.90
13817;DHT22;6979;52.116;5.286;2022-09-09T10:17:31;20.30;99.90
13817;DHT22;6979;52.116;5.286;2022-09-09T10:20:12;20.30;99.90
13817;DHT22;6979;52.116;5.286;2022-09-09T10:22:45;20.30;99.90
13817;DHT22;6979;52.116;5.286;2022-09-09T10:25:32;20.30;99.90
13817;DHT22;6979;52.116;5.286;2022-09-09T10:28:24;20.30;99.90
13817;DHT22;6979;52.116;5.286;2022-09-09T10:31:04;20.30;99.90
13817;DHT22;6979;52.116;5.286;2022-09-09T10:33:43;20.30;99.90
13817;DHT22;6979;52.116;5.286;2022-09-09T10:36:15;20.20;99.90
13817;DHT22;6979;52.116;5.286;2022-09-09T10:38:46;20.10;99.90
13817;DHT22;6979;52.116;5.286;2022-09-09T10:41:18;20.10;99.90
13817;DHT22;6979;52.116;5.286;2022-09-09T10:44:06;20.10;99.90
13817;DHT22;6979;52.116;5.286;2022-09-09T10:46:50;20.00;99.90
13817;DHT22;6979;52.116;5.286;2022-09-09T10:49:27;20.00;99.90
13817;DHT22;6979;52.116;5.286;2022-09-09T10:52:04;20.10;99.90
13817;DHT22;6979;52.116;5.286;2022-09-09T10:54:45;20.20;99.90
13817;DHT22;6979;52.116;5.286;2022-09-09T10:57:23;20.30;99.90
13817;DHT22;6979;52.116;5.286;2022-09-09T10:59:58;20.30;99.90
13817;DHT22;6979;52.116;5.286;2022-09-09T11:02:29;20.40;99.90
13817;DHT22;6979;52.116;5.286;2022-09-09T11:04:59;20.50;99.90
13817;DHT22;6979;52.116;5.286;2022-09-09T11:07:33;20.70;99.90
13817;DHT22;6979;52.116;5.286;2022-09-09T11:10:04;20.80;99.90
13817;DHT22;6979;52.116;5.286;2022-09-09T11:12:36;20.90;99.90
13817;DHT22;6979;52.116;5.286;2022-09-09T11:15:08;21.00;99.90
13817;DHT22;6979;52.116;5.286;2022-09-09T11:17:44;21.00;99.90
13817;DHT22;6979;52.116;5.286;2022-09-09T11:20:13;21.00;99.90
13817;DHT22;6979;52.116;5.286;2022-09-09T11:22:46;21.00;99.90
13817;DHT22;6979;52.116;5.286;2022-09-09T11:25:17;21.00;99.90
13817;DHT22;6979;52.116;5.286;2022-09-09T11:27:57;21.10;99.90
13817;DHT22;6979;52.116;5.286;2022-09-09T11:30:32;21.10;99.90
13817;DHT22;6979;52.116;5.286;2022-09-09T11:36:11;21.10;99.90
13817;DHT22;6979;52.116;5.286;2022-09-09T11:38:44;21.20;99.90
13817;DHT22;6979;52.116;5.286;2022-09-09T11:41:12;21.20;99.90
13817;DHT22;6979;52.116;5.286;2022-09-09T11:43:41;21.20;99.90
13817;DHT22;6979;52.116;5.286;2022-09-09T11:46:10;21.20;99.90
13817;DHT22;6979;52.116;5.286;2022-09-09T11:48:41;21.20;99.90
13817;DHT22;6979;52.116;5.286;2022-09-09T11:51:13;21.20;99.90
13817;DHT22;6979;52.116;5.286;2022-09-09T11:53:50;21.20;99.90
13817;DHT22;6979;52.116;5.286;2022-09-09T11:56:26;21.20;99.90
13817;DHT22;6979;52.116;5.286;2022-09-09T11:58:56;21.10;99.90
13817;DHT22;6979;52.116;5.286;2022-09-09T12:01:38;21.00;99.90
13817;DHT22;6979;52.116;5.286;2022-09-09T12:04:28;21.00;99.90
13817;DHT22;6979;52.116;5.286;2022-09-09T12:06:58;20.90;99.90
13817;DHT22;6979;52.116;5.286;2022-09-09T12:09:30;20.90;99.90
13817;DHT22;6979;52.116;5.286;2022-09-09T12:12:21;20.80;99.90
13817;DHT22;6979;52.116;5.286;2022-09-09T12:14:57;20.80;99.90
13817;DHT22;6979;52.116;5.286;2022-09-09T12:17:26;20.70;99.90
13817;DHT22;6979;52.116;5.286;2022-09-09T12:20:03;20.70;99.90
13817;DHT22;6979;52.116;5.286;2022-09-09T12:22:38;20.70;99.90
13817;DHT22;6979;52.116;5.286;2022-09-09T12:25:16;20.70;99.90
13817;DHT22;6979;52.116;5.286;2022-09-09T12:27:54;20.60;99.90
13817;DHT22;6979;52.116;5.286;2022-09-09T12:30:29;20.60;99.90
13817;DHT22;6979;52.116;5.286;2022-09-09T12:33:06;20.50;99.90
13817;DHT22;6979;52.116;5.286;2022-09-09T12:35:36;20.50;99.90
13817;DHT22;6979;52.116;5.286;2022-09-09T12:38:05;20.50;99.90
13817;DHT22;6979;52.116;5.286;2022-09-09T12:40:37;20.50;99.90
13817;DHT22;6979;52.116;5.286;2022-09-09T12:43:17;20.50;99.90
13817;DHT22;6979;52.116;5.286;2022-09-09T12:45:45;20.50;99.90
13817;DHT22;6979;52.116;5.286;2022-09-09T12:48:12;20.50;99.90
13817;DHT22;6979;52.116;5.286;2022-09-09T12:50:46;20.50;99.90
13817;DHT22;6979;52.116;5.286;2022-09-09T12:53:21;20.50;99.90
13817;DHT22;6979;52.116;5.286;2022-09-09T12:55:51;20.50;99.90
13817;DHT22;6979;52.116;5.286;2022-09-09T12:58:20;20.60;99.90
13817;DHT22;6979;52.116;5.286;2022-09-09T13:00:50;20.70;99.90
13817;DHT22;6979;52.116;5.286;2022-09-09T13:03:19;20.70;99.90
13817;DHT22;6979;52.116;5.286;2022-09-09T13:05:48;20.70;99.90
13817;DHT22;6979;52.116;5.286;2022-09-09T13:08:16;20.80;99.90
13817;DHT22;6979;52.116;5.286;2022-09-09T13:10:48;20.90;99.90
13817;DHT22;6979;52.116;5.286;2022-09-09T13:13:22;20.90;99.90
13817;DHT22;6979;52.116;5.286;2022-09-09T13:15:52;20.90;99.90
13817;DHT22;6979;52.116;5.286;2022-09-09T13:18:22;21.00;99.90
13817;DHT22;6979;52.116;5.286;2022-09-09T13:20:51;21.00;99.90
13817;DHT22;6979;52.116;5.286;2022-09-09T13:23:19;21.10;99.90
13817;DHT22;6979;52.116;5.286;2022-09-09T13:25:53;21.10;99.90
13817;DHT22;6979;52.116;5.286;2022-09-09T13:28:22;21.20;99.90
13817;DHT22;6979;52.116;5.286;2022-09-09T13:30:59;21.20;99.90
13817;DHT22;6979;52.116;5.286;2022-09-09T13:33:32;21.20;99.90
13817;DHT22;6979;52.116;5.286;2022-09-09T13:36:03;21.20;99.90
13817;DHT22;6979;52.116;5.286;2022-09-09T13:38:32;21.10;99.90
13817;DHT22;6979;52.116;5.286;2022-09-09T13:41:01;21.10;99.90
13817;DHT22;6979;52.116;5.286;2022-09-09T13:43:31;21.10;99.90
13817;DHT22;6979;52.116;5.286;2022-09-09T13:46:02;21.00;99.90
13817;DHT22;6979;52.116;5.286;2022-09-09T13:48:29;21.00;99.90
13817;DHT22;6979;52.116;5.286;2022-09-09T13:51:01;21.00;99.90
13817;DHT22;6979;52.116;5.286;2022-09-09T13:53:28;21.10;99.90
13817;DHT22;6979;52.116;5.286;2022-09-09T13:55:56;21.10;99.90
13817;DHT22;6979;52.116;5.286;2022-09-09T13:58:23;21.10;99.90
13817;DHT22;6979;52.116;5.286;2022-09-09T14:00:51;21.10;99.90
13817;DHT22;6979;52.116;5.286;2022-09-09T14:03:19;21.10;99.90
13817;DHT22;6979;52.116;5.286;2022-09-09T14:05:46;21.10;99.90
13817;DHT22;6979;52.116;5.286;2022-09-09T14:08:21;21.20;99.90
13817;DHT22;6979;52.116;5.286;2022-09-09T14:10:49;21.10;99.90
13817;DHT22;6979;52.116;5.286;2022-09-09T14:13:16;21.20;99.90
13817;DHT22;6979;52.116;5.286;2022-09-09T14:15:42;21.20;99.90
13817;DHT22;6979;52.116;5.286;2022-09-09T14:18:11;21.20;99.90
13817;DHT22;6979;52.116;5.286;2022-09-09T14:20:39;21.20;99.90
13817;DHT22;6979;52.116;5.286;2022-09-09T14:23:07;21.20;99.90
13817;DHT22;6979;52.116;5.286;2022-09-09T14:25:39;21.20;99.90
13817;DHT22;6979;52.116;5.286;2022-09-09T14:28:09;21.20;99.90
13817;DHT22;6979;52.116;5.286;2022-09-09T14:30:37;21.20;99.90
13817;DHT22;6979;52.116;5.286;2022-09-09T14:33:04;21.10;99.90
13817;DHT22;6979;52.116;5.286;2022-09-09T14:35:31;21.10;99.90
13817;DHT22;6979;52.116;5.286;2022-09-09T14:37:58;21.10;99.90
13817;DHT22;6979;52.116;5.286;2022-09-09T14:40:26;21.00;99.90
13817;DHT22;6979;52.116;5.286;2022-09-09T14:42:54;20.90;99.90
13817;DHT22;6979;52.116;5.286;2022-09-09T14:45:22;20.90;99.90
13817;DHT22;6979;52.116;5.286;2022-09-09T14:47:50;20.80;99.90
13817;DHT22;6979;52.116;5.286;2022-09-09T14:50:17;20.80;99.90
13817;DHT22;6979;52.116;5.286;2022-09-09T14:52:44;20.80;99.90
13817;DHT22;6979;52.116;5.286;2022-09-09T14:55:11;20.80;99.90
13817;DHT22;6979;52.116;5.286;2022-09-09T14:57:38;20.80;99.90
13817;DHT22;6979;52.116;5.286;2022-09-09T15:00:09;20.90;99.90
13817;DHT22;6979;52.116;5.286;2022-09-09T15:02:36;21.00;99.90
13817;DHT22;6979;52.116;5.286;2022-09-09T15:05:04;21.10;99.90
13817;DHT22;6979;52.116;5.286;2022-09-09T15:07:31;21.10;99.90
13817;DHT22;6979;52.116;5.286;2022-09-09T15:09:59;21.20;99.90
13817;DHT22;6979;52.116;5.286;2022-09-09T15:12:26;21.20;99.90
13817;DHT22;6979;52.116;5.286;2022-09-09T15:14:53;21.30;99.90
13817;DHT22;6979;52.116;5.286;2022-09-09T15:17:22;21.30;99.90
13817;DHT22;6979;52.116;5.286;2022-09-09T15:19:52;21.30;99.90
13817;DHT22;6979;52.116;5.286;2022-09-09T15:22:20;21.30;99.90
13817;DHT22;6979;52.116;5.286;2022-09-09T15:24:47;21.30;99.90
13817;DHT22;6979;52.116;5.286;2022-09-09T15:27:14;21.30;99.90
13817;DHT22;6979;52.116;5.286;2022-09-09T15:29:41;21.30;99.90
13817;DHT22;6979;52.116;5.286;2022-09-09T15:32:09;21.20;99.90
13817;DHT22;6979;52.116;5.286;2022-09-09T15:34:37;21.20;99.90
13817;DHT22;6979;52.116;5.286;2022-09-09T15:37:04;21.20;99.90
13817;DHT22;6979;52.116;5.286;2022-09-09T15:39:31;21.20;99.90
13817;DHT22;6979;52.116;5.286;2022-09-09T15:41:58;21.10;99.90
13817;DHT22;6979;52.116;5.286;2022-09-09T15:44:27;21.10;99.90
13817;DHT22;6979;52.116;5.286;2022-09-09T15:46:54;21.10;99.90
13817;DHT22;6979;52.116;5.286;2022-09-09T15:49:22;21.10;99.90
13817;DHT22;6979;52.116;5.286;2022-09-09T15:51:53;21.10;99.90
13817;DHT22;6979;52.116;5.286;2022-09-09T15:54:21;21.10;99.90
13817;DHT22;6979;52.116;5.286;2022-09-09T15:56:52;21.20;99.90
13817;DHT22;6979;52.116;5.286;2022-09-09T15:59:20;21.20;99.90
13817;DHT22;6979;52.116;5.286;2022-09-09T16:01:49;21.20;99.90
13817;DHT22;6979;52.116;5.286;2022-09-09T16:04:17;21.30;99.90
13817;DHT22;6979;52.116;5.286;2022-09-09T16:06:49;21.30;99.90
13817;DHT22;6979;52.116;5.286;2022-09-09T16:09:19;21.30;99.90
13817;DHT22;6979;52.116;5.286;2022-09-09T16:11:46;21.30;99.90
13817;DHT22;6979;52.116;5.286;2022-09-09T16:14:14;21.40;99.90